Terminal Aerodrome Forecast
Issued by NWS

Home | Current Version | Previous Version | Graphics & Text | Print | Product List | Glossary Off
Versions: 1 2 3 4 5 6 7 8 9 10 11 12 13 14

292
FTUS43 KLSX 052322
TAFSUS
TAF
KSUS 052322Z 0600/0624 00000KT P6SM FEW250
     FM061700 25007KT P6SM SCT250=

USA.gov is the U.S. government's official web portal to all federal, state and local government web resources and services.